sensor_id;sensor_type;location;lat;lon;timestamp;P1;durP1;ratioP1;P2;durP2;ratioP2
23449;SDS011;11897;45.438;12.128;2023-02-25T00:00:09;13.87;;;5.40;;
23449;SDS011;11897;45.438;12.128;2023-02-25T00:02:43;17.50;;;5.43;;
23449;SDS011;11897;45.438;12.128;2023-02-25T00:05:10;26.00;;;7.43;;
23449;SDS011;11897;45.438;12.128;2023-02-25T00:07:36;20.73;;;6.90;;
23449;SDS011;11897;45.438;12.128;2023-02-25T00:10:05;26.57;;;7.20;;
23449;SDS011;11897;45.438;12.128;2023-02-25T00:12:31;25.87;;;6.47;;
23449;SDS011;11897;45.438;12.128;2023-02-25T00:14:58;24.10;;;7.73;;
23449;SDS011;11897;45.438;12.128;2023-02-25T00:17:25;18.13;;;5.40;;
23449;SDS011;11897;45.438;12.128;2023-02-25T00:19:53;15.80;;;6.67;;
23449;SDS011;11897;45.438;12.128;2023-02-25T00:22:21;28.77;;;6.27;;
23449;SDS011;11897;45.438;12.128;2023-02-25T00:24:50;12.53;;;4.57;;
23449;SDS011;11897;45.438;12.128;2023-02-25T00:27:17;26.10;;;6.60;;
23449;SDS011;11897;45.438;12.128;2023-02-25T00:29:43;23.93;;;6.50;;
23449;SDS011;11897;45.438;12.128;2023-02-25T00:32:10;18.60;;;7.00;;
23449;SDS011;11897;45.438;12.128;2023-02-25T00:34:37;22.97;;;5.93;;
23449;SDS011;11897;45.438;12.128;2023-02-25T00:37:05;15.30;;;6.67;;
23449;SDS011;11897;45.438;12.128;2023-02-25T00:39:31;15.77;;;5.73;;
23449;SDS011;11897;45.438;12.128;2023-02-25T00:42:07;17.10;;;5.77;;
23449;SDS011;11897;45.438;12.128;2023-02-25T00:44:34;23.87;;;5.90;;
23449;SDS011;11897;45.438;12.128;2023-02-25T00:47:01;16.80;;;6.03;;
23449;SDS011;11897;45.438;12.128;2023-02-25T00:49:27;26.97;;;6.13;;
23449;SDS011;11897;45.438;12.128;2023-02-25T00:51:54;19.00;;;6.17;;
23449;SDS011;11897;45.438;12.128;2023-02-25T00:54:22;19.13;;;5.40;;
23449;SDS011;11897;45.438;12.128;2023-02-25T00:56:49;19.00;;;6.33;;
23449;SDS011;11897;45.438;12.128;2023-02-25T00:59:16;15.90;;;5.60;;
23449;SDS011;11897;45.438;12.128;2023-02-25T01:01:42;17.97;;;5.83;;
23449;SDS011;11897;45.438;12.128;2023-02-25T01:04:09;15.33;;;5.13;;
23449;SDS011;11897;45.438;12.128;2023-02-25T01:06:36;19.17;;;5.77;;
23449;SDS011;11897;45.438;12.128;2023-02-25T01:09:04;20.60;;;6.23;;
23449;SDS011;11897;45.438;12.128;2023-02-25T01:11:32;24.27;;;6.27;;
23449;SDS011;11897;45.438;12.128;2023-02-25T01:14:00;30.17;;;7.97;;
23449;SDS011;11897;45.438;12.128;2023-02-25T01:16:28;20.47;;;6.70;;
23449;SDS011;11897;45.438;12.128;2023-02-25T01:18:56;31.07;;;5.93;;
23449;SDS011;11897;45.438;12.128;2023-02-25T01:21:24;23.00;;;5.53;;
23449;SDS011;11897;45.438;12.128;2023-02-25T01:23:53;26.10;;;6.73;;
23449;SDS011;11897;45.438;12.128;2023-02-25T01:26:23;23.13;;;6.13;;
23449;SDS011;11897;45.438;12.128;2023-02-25T01:28:51;19.30;;;5.77;;
23449;SDS011;11897;45.438;12.128;2023-02-25T01:31:18;25.77;;;6.83;;
23449;SDS011;11897;45.438;12.128;2023-02-25T01:33:48;21.43;;;5.77;;
23449;SDS011;11897;45.438;12.128;2023-02-25T01:36:15;18.67;;;4.97;;
23449;SDS011;11897;45.438;12.128;2023-02-25T01:38:42;20.27;;;5.43;;
23449;SDS011;11897;45.438;12.128;2023-02-25T01:41:08;23.70;;;5.90;;
23449;SDS011;11897;45.438;12.128;2023-02-25T01:43:36;19.77;;;6.20;;
23449;SDS011;11897;45.438;12.128;2023-02-25T01:46:04;18.13;;;5.00;;
23449;SDS011;11897;45.438;12.128;2023-02-25T01:48:31;19.83;;;5.77;;
23449;SDS011;11897;45.438;12.128;2023-02-25T01:51:01;17.67;;;5.30;;
23449;SDS011;11897;45.438;12.128;2023-02-25T01:53:28;18.87;;;5.67;;
23449;SDS011;11897;45.438;12.128;2023-02-25T01:55:56;18.53;;;6.47;;
23449;SDS011;11897;45.438;12.128;2023-02-25T01:58:23;13.87;;;4.43;;
23449;SDS011;11897;45.438;12.128;2023-02-25T02:00:50;15.63;;;5.77;;
23449;SDS011;11897;45.438;12.128;2023-02-25T02:03:21;14.53;;;4.93;;
23449;SDS011;11897;45.438;12.128;2023-02-25T02:05:54;25.63;;;4.43;;
23449;SDS011;11897;45.438;12.128;2023-02-25T02:08:22;22.50;;;5.90;;
23449;SDS011;11897;45.438;12.128;2023-02-25T02:10:52;14.17;;;5.03;;
23449;SDS011;11897;45.438;12.128;2023-02-25T02:13:20;14.80;;;4.80;;
23449;SDS011;11897;45.438;12.128;2023-02-25T02:15:51;15.40;;;6.33;;
23449;SDS011;11897;45.438;12.128;2023-02-25T02:18:22;20.23;;;5.07;;
23449;SDS011;11897;45.438;12.128;2023-02-25T02:20:56;13.60;;;5.03;;
23449;SDS011;11897;45.438;12.128;2023-02-25T02:23:41;19.17;;;6.17;;
23449;SDS011;11897;45.438;12.128;2023-02-25T02:28:59;23.93;;;4.97;;
23449;SDS011;11897;45.438;12.128;2023-02-25T02:31:38;15.73;;;4.73;;
23449;SDS011;11897;45.438;12.128;2023-02-25T02:34:14;10.80;;;4.23;;
23449;SDS011;11897;45.438;12.128;2023-02-25T02:36:45;35.23;;;5.60;;
23449;SDS011;11897;45.438;12.128;2023-02-25T02:39:17;17.33;;;4.67;;
23449;SDS011;11897;45.438;12.128;2023-02-25T02:41:47;13.27;;;4.67;;
23449;SDS011;11897;45.438;12.128;2023-02-25T02:44:16;19.87;;;5.13;;
23449;SDS011;11897;45.438;12.128;2023-02-25T02:46:48;21.43;;;3.97;;
23449;SDS011;11897;45.438;12.128;2023-02-25T02:49:16;16.43;;;5.73;;
23449;SDS011;11897;45.438;12.128;2023-02-25T02:51:47;16.77;;;4.53;;
23449;SDS011;11897;45.438;12.128;2023-02-25T02:54:16;25.90;;;5.00;;
23449;SDS011;11897;45.438;12.128;2023-02-25T02:56:44;20.33;;;4.57;;
23449;SDS011;11897;45.438;12.128;2023-02-25T02:59:13;28.20;;;5.90;;
23449;SDS011;11897;45.438;12.128;2023-02-25T03:01:43;17.97;;;4.30;;
23449;SDS011;11897;45.438;12.128;2023-02-25T03:04:13;17.60;;;5.77;;
23449;SDS011;11897;45.438;12.128;2023-02-25T03:06:42;25.17;;;6.10;;
23449;SDS011;11897;45.438;12.128;2023-02-25T03:09:11;32.20;;;5.60;;
23449;SDS011;11897;45.438;12.128;2023-02-25T03:11:39;24.40;;;5.80;;
23449;SDS011;11897;45.438;12.128;2023-02-25T03:14:06;11.57;;;4.50;;
23449;SDS011;11897;45.438;12.128;2023-02-25T03:16:34;20.27;;;5.37;;
23449;SDS011;11897;45.438;12.128;2023-02-25T03:19:04;12.13;;;4.87;;
23449;SDS011;11897;45.438;12.128;2023-02-25T03:21:33;29.83;;;6.20;;
23449;SDS011;11897;45.438;12.128;2023-02-25T03:24:02;14.87;;;4.90;;
23449;SDS011;11897;45.438;12.128;2023-02-25T03:26:31;22.53;;;5.23;;
23449;SDS011;11897;45.438;12.128;2023-02-25T03:29:01;22.87;;;5.23;;
23449;SDS011;11897;45.438;12.128;2023-02-25T03:31:28;25.90;;;5.80;;
23449;SDS011;11897;45.438;12.128;2023-02-25T03:33:58;10.23;;;4.67;;
23449;SDS011;11897;45.438;12.128;2023-02-25T03:36:27;13.57;;;5.73;;
23449;SDS011;11897;45.438;12.128;2023-02-25T03:38:58;18.43;;;5.47;;
23449;SDS011;11897;45.438;12.128;2023-02-25T03:41:27;19.90;;;5.73;;
23449;SDS011;11897;45.438;12.128;2023-02-25T03:43:55;25.63;;;6.30;;
23449;SDS011;11897;45.438;12.128;2023-02-25T03:46:23;17.90;;;5.30;;
23449;SDS011;11897;45.438;12.128;2023-02-25T03:48:50;18.40;;;6.03;;
23449;SDS011;11897;45.438;12.128;2023-02-25T03:51:19;15.23;;;5.47;;
23449;SDS011;11897;45.438;12.128;2023-02-25T03:53:47;22.67;;;6.50;;
23449;SDS011;11897;45.438;12.128;2023-02-25T03:56:20;26.07;;;6.63;;
23449;SDS011;11897;45.438;12.128;2023-02-25T03:58:46;27.37;;;7.90;;
23449;SDS011;11897;45.438;12.128;2023-02-25T04:01:14;19.30;;;6.83;;
23449;SDS011;11897;45.438;12.128;2023-02-25T04:03:41;26.33;;;7.27;;
23449;SDS011;11897;45.438;12.128;2023-02-25T04:06:09;18.07;;;6.23;;
23449;SDS011;11897;45.438;12.128;2023-02-25T04:08:36;21.97;;;7.57;;
23449;SDS011;11897;45.438;12.128;2023-02-25T04:11:03;15.67;;;5.87;;
23449;SDS011;11897;45.438;12.128;2023-02-25T04:13:32;25.30;;;7.90;;
23449;SDS011;11897;45.438;12.128;2023-02-25T04:15:58;30.67;;;7.97;;
23449;SDS011;11897;45.438;12.128;2023-02-25T04:18:26;16.17;;;6.77;;
23449;SDS011;11897;45.438;12.128;2023-02-25T04:20:52;28.30;;;7.17;;
23449;SDS011;11897;45.438;12.128;2023-02-25T04:23:19;24.33;;;6.07;;
23449;SDS011;11897;45.438;12.128;2023-02-25T04:25:46;21.50;;;7.20;;
23449;SDS011;11897;45.438;12.128;2023-02-25T04:28:12;22.50;;;6.97;;
23449;SDS011;11897;45.438;12.128;2023-02-25T04:30:40;55.27;;;8.17;;
23449;SDS011;11897;45.438;12.128;2023-02-25T04:33:08;24.13;;;6.97;;
23449;SDS011;11897;45.438;12.128;2023-02-25T04:35:34;62.73;;;8.23;;
23449;SDS011;11897;45.438;12.128;2023-02-25T04:38:01;24.90;;;7.70;;
23449;SDS011;11897;45.438;12.128;2023-02-25T04:40:28;25.23;;;6.33;;
23449;SDS011;11897;45.438;12.128;2023-02-25T04:42:55;23.50;;;6.97;;
23449;SDS011;11897;45.438;12.128;2023-02-25T04:45:22;17.57;;;7.53;;
23449;SDS011;11897;45.438;12.128;2023-02-25T04:47:51;15.90;;;6.57;;
23449;SDS011;11897;45.438;12.128;2023-02-25T04:50:18;20.97;;;7.70;;
23449;SDS011;11897;45.438;12.128;2023-02-25T04:52:45;21.30;;;7.37;;
23449;SDS011;11897;45.438;12.128;2023-02-25T04:55:11;18.13;;;7.53;;
23449;SDS011;11897;45.438;12.128;2023-02-25T04:57:38;16.60;;;6.70;;
23449;SDS011;11897;45.438;12.128;2023-02-25T05:00:07;22.03;;;7.33;;
23449;SDS011;11897;45.438;12.128;2023-02-25T05:02:34;19.83;;;7.50;;
23449;SDS011;11897;45.438;12.128;2023-02-25T05:05:02;16.33;;;7.23;;
23449;SDS011;11897;45.438;12.128;2023-02-25T05:07:29;18.07;;;7.97;;
23449;SDS011;11897;45.438;12.128;2023-02-25T05:09:56;18.87;;;8.23;;
23449;SDS011;11897;45.438;12.128;2023-02-25T05:12:22;19.53;;;6.50;;
23449;SDS011;11897;45.438;12.128;2023-02-25T05:14:49;22.90;;;7.07;;
23449;SDS011;11897;45.438;12.128;2023-02-25T05:17:16;18.83;;;7.87;;
23449;SDS011;11897;45.438;12.128;2023-02-25T05:19:43;21.80;;;7.83;;
23449;SDS011;11897;45.438;12.128;2023-02-25T05:22:11;19.00;;;8.50;;
23449;SDS011;11897;45.438;12.128;2023-02-25T05:24:37;21.90;;;8.97;;
23449;SDS011;11897;45.438;12.128;2023-02-25T05:27:04;18.47;;;7.30;;
23449;SDS011;11897;45.438;12.128;2023-02-25T05:29:33;21.30;;;7.67;;
23449;SDS011;11897;45.438;12.128;2023-02-25T05:32:00;23.83;;;7.57;;
23449;SDS011;11897;45.438;12.128;2023-02-25T05:34:26;19.33;;;7.27;;
23449;SDS011;11897;45.438;12.128;2023-02-25T05:36:53;17.57;;;6.53;;
23449;SDS011;11897;45.438;12.128;2023-02-25T05:39:21;19.27;;;8.43;;
23449;SDS011;11897;45.438;12.128;2023-02-25T05:41:48;20.60;;;7.80;;
23449;SDS011;11897;45.438;12.128;2023-02-25T05:44:15;23.60;;;7.73;;
23449;SDS011;11897;45.438;12.128;2023-02-25T05:46:42;20.07;;;8.33;;
23449;SDS011;11897;45.438;12.128;2023-02-25T05:49:09;17.83;;;7.60;;
23449;SDS011;11897;45.438;12.128;2023-02-25T05:51:36;25.70;;;8.33;;
23449;SDS011;11897;45.438;12.128;2023-02-25T05:54:02;19.70;;;7.90;;
23449;SDS011;11897;45.438;12.128;2023-02-25T05:56:30;21.40;;;8.70;;
23449;SDS011;11897;45.438;12.128;2023-02-25T05:58:57;17.43;;;7.27;;
23449;SDS011;11897;45.438;12.128;2023-02-25T06:01:24;14.13;;;6.47;;
23449;SDS011;11897;45.438;12.128;2023-02-25T06:03:51;17.77;;;7.00;;
23449;SDS011;11897;45.438;12.128;2023-02-25T06:06:23;16.33;;;6.43;;
23449;SDS011;11897;45.438;12.128;2023-02-25T06:08:51;21.13;;;6.47;;
23449;SDS011;11897;45.438;12.128;2023-02-25T06:11:19;21.23;;;7.13;;
23449;SDS011;11897;45.438;12.128;2023-02-25T06:13:48;24.80;;;7.03;;
23449;SDS011;11897;45.438;12.128;2023-02-25T06:16:15;17.03;;;6.80;;
23449;SDS011;11897;45.438;12.128;2023-02-25T06:18:41;21.47;;;8.33;;
23449;SDS011;11897;45.438;12.128;2023-02-25T06:21:09;16.33;;;7.13;;
23449;SDS011;11897;45.438;12.128;2023-02-25T06:23:36;24.60;;;8.90;;
23449;SDS011;11897;45.438;12.128;2023-02-25T06:26:04;21.33;;;8.13;;
23449;SDS011;11897;45.438;12.128;2023-02-25T06:28:32;26.30;;;7.53;;
23449;SDS011;11897;45.438;12.128;2023-02-25T06:31:00;17.43;;;6.80;;
23449;SDS011;11897;45.438;12.128;2023-02-25T06:33:27;23.43;;;7.53;;
23449;SDS011;11897;45.438;12.128;2023-02-25T06:35:55;21.87;;;7.67;;
23449;SDS011;11897;45.438;12.128;2023-02-25T06:38:21;20.47;;;6.63;;
23449;SDS011;11897;45.438;12.128;2023-02-25T06:40:49;28.57;;;8.47;;
23449;SDS011;11897;45.438;12.128;2023-02-25T06:43:16;19.47;;;7.77;;
23449;SDS011;11897;45.438;12.128;2023-02-25T06:45:43;28.10;;;9.43;;
23449;SDS011;11897;45.438;12.128;2023-02-25T06:48:11;20.83;;;8.00;;
23449;SDS011;11897;45.438;12.128;2023-02-25T06:50:37;25.17;;;8.80;;
23449;SDS011;11897;45.438;12.128;2023-02-25T06:53:04;22.57;;;8.57;;
23449;SDS011;11897;45.438;12.128;2023-02-25T06:55:31;24.07;;;8.77;;
23449;SDS011;11897;45.438;12.128;2023-02-25T06:57:58;27.70;;;9.63;;
23449;SDS011;11897;45.438;12.128;2023-02-25T07:00:25;19.57;;;8.63;;
23449;SDS011;11897;45.438;12.128;2023-02-25T07:02:51;24.23;;;9.20;;
23449;SDS011;11897;45.438;12.128;2023-02-25T07:05:19;24.10;;;8.60;;
23449;SDS011;11897;45.438;12.128;2023-02-25T07:07:46;21.20;;;8.37;;
23449;SDS011;11897;45.438;12.128;2023-02-25T07:10:12;19.43;;;9.43;;
23449;SDS011;11897;45.438;12.128;2023-02-25T07:12:39;24.57;;;7.93;;
23449;SDS011;11897;45.438;12.128;2023-02-25T07:15:06;14.97;;;6.53;;
23449;SDS011;11897;45.438;12.128;2023-02-25T07:17:33;18.57;;;7.93;;
23449;SDS011;11897;45.438;12.128;2023-02-25T07:20:00;14.17;;;6.07;;
23449;SDS011;11897;45.438;12.128;2023-02-25T07:22:28;14.67;;;6.93;;
23449;SDS011;11897;45.438;12.128;2023-02-25T07:24:54;15.90;;;7.13;;
23449;SDS011;11897;45.438;12.128;2023-02-25T07:27:21;21.30;;;7.57;;
23449;SDS011;11897;45.438;12.128;2023-02-25T07:29:49;16.57;;;6.63;;
23449;SDS011;11897;45.438;12.128;2023-02-25T07:32:15;16.70;;;7.17;;
23449;SDS011;11897;45.438;12.128;2023-02-25T07:34:42;20.47;;;8.30;;
23449;SDS011;11897;45.438;12.128;2023-02-25T07:37:08;13.97;;;6.63;;
23449;SDS011;11897;45.438;12.128;2023-02-25T07:39:38;16.43;;;6.87;;
23449;SDS011;11897;45.438;12.128;2023-02-25T07:42:04;21.63;;;7.70;;
23449;SDS011;11897;45.438;12.128;2023-02-25T07:44:34;17.57;;;7.97;;
23449;SDS011;11897;45.438;12.128;2023-02-25T07:47:01;18.43;;;7.73;;
23449;SDS011;11897;45.438;12.128;2023-02-25T07:49:27;16.13;;;6.37;;
23449;SDS011;11897;45.438;12.128;2023-02-25T07:51:54;16.77;;;8.00;;
23449;SDS011;11897;45.438;12.128;2023-02-25T07:54:21;15.60;;;7.23;;
23449;SDS011;11897;45.438;12.128;2023-02-25T07:56:49;21.83;;;8.23;;
23449;SDS011;11897;45.438;12.128;2023-02-25T07:59:16;21.80;;;8.37;;
23449;SDS011;11897;45.438;12.128;2023-02-25T08:01:42;24.97;;;8.43;;
23449;SDS011;11897;45.438;12.128;2023-02-25T08:04:09;19.23;;;8.03;;
23449;SDS011;11897;45.438;12.128;2023-02-25T08:06:37;15.93;;;6.63;;
23449;SDS011;11897;45.438;12.128;2023-02-25T08:09:04;22.90;;;7.30;;
23449;SDS011;11897;45.438;12.128;2023-02-25T08:11:31;21.27;;;8.07;;
23449;SDS011;11897;45.438;12.128;2023-02-25T08:13:59;23.37;;;8.10;;
23449;SDS011;11897;45.438;12.128;2023-02-25T08:16:26;21.37;;;9.47;;
23449;SDS011;11897;45.438;12.128;2023-02-25T08:18:53;23.63;;;8.80;;
23449;SDS011;11897;45.438;12.128;2023-02-25T08:21:20;24.97;;;9.80;;
23449;SDS011;11897;45.438;12.128;2023-02-25T08:23:47;22.90;;;8.60;;
23449;SDS011;11897;45.438;12.128;2023-02-25T08:26:14;25.43;;;9.50;;
23449;SDS011;11897;45.438;12.128;2023-02-25T08:28:41;28.10;;;9.80;;
23449;SDS011;11897;45.438;12.128;2023-02-25T08:31:09;26.03;;;10.63;;
23449;SDS011;11897;45.438;12.128;2023-02-25T08:33:37;26.90;;;10.80;;
23449;SDS011;11897;45.438;12.128;2023-02-25T08:36:05;20.70;;;9.23;;
23449;SDS011;11897;45.438;12.128;2023-02-25T08:38:34;26.87;;;9.40;;
23449;SDS011;11897;45.438;12.128;2023-02-25T08:41:00;24.83;;;9.63;;
23449;SDS011;11897;45.438;12.128;2023-02-25T08:43:27;24.20;;;8.93;;
23449;SDS011;11897;45.438;12.128;2023-02-25T08:45:53;22.33;;;8.13;;
23449;SDS011;11897;45.438;12.128;2023-02-25T08:48:23;25.53;;;9.30;;
23449;SDS011;11897;45.438;12.128;2023-02-25T08:50:50;27.80;;;10.07;;
23449;SDS011;11897;45.438;12.128;2023-02-25T08:53:17;29.60;;;10.57;;
23449;SDS011;11897;45.438;12.128;2023-02-25T08:55:44;24.60;;;9.50;;
23449;SDS011;11897;45.438;12.128;2023-02-25T08:58:11;24.50;;;9.67;;
23449;SDS011;11897;45.438;12.128;2023-02-25T09:00:38;20.80;;;9.17;;
23449;SDS011;11897;45.438;12.128;2023-02-25T09:03:05;30.70;;;10.83;;
23449;SDS011;11897;45.438;12.128;2023-02-25T09:05:34;30.80;;;10.07;;
23449;SDS011;11897;45.438;12.128;2023-02-25T09:08:02;18.47;;;8.97;;
23449;SDS011;11897;45.438;12.128;2023-02-25T09:10:29;28.07;;;9.60;;
23449;SDS011;11897;45.438;12.128;2023-02-25T09:12:56;25.37;;;11.03;;
23449;SDS011;11897;45.438;12.128;2023-02-25T09:15:23;24.57;;;10.23;;
23449;SDS011;11897;45.438;12.128;2023-02-25T09:17:49;25.30;;;9.70;;
23449;SDS011;11897;45.438;12.128;2023-02-25T09:20:17;23.80;;;9.63;;
23449;SDS011;11897;45.438;12.128;2023-02-25T09:22:46;21.17;;;9.27;;
23449;SDS011;11897;45.438;12.128;2023-02-25T09:25:12;25.90;;;8.87;;
23449;SDS011;11897;45.438;12.128;2023-02-25T09:27:39;26.77;;;9.60;;
23449;SDS011;11897;45.438;12.128;2023-02-25T09:30:06;27.77;;;8.73;;
23449;SDS011;11897;45.438;12.128;2023-02-25T09:32:33;25.17;;;11.83;;
23449;SDS011;11897;45.438;12.128;2023-02-25T09:35:00;22.73;;;10.20;;
23449;SDS011;11897;45.438;12.128;2023-02-25T09:37:28;23.10;;;8.97;;
23449;SDS011;11897;45.438;12.128;2023-02-25T09:39:56;18.83;;;10.00;;
23449;SDS011;11897;45.438;12.128;2023-02-25T09:42:23;27.03;;;11.30;;
23449;SDS011;11897;45.438;12.128;2023-02-25T09:44:51;25.30;;;10.10;;
23449;SDS011;11897;45.438;12.128;2023-02-25T09:47:20;27.33;;;10.43;;
23449;SDS011;11897;45.438;12.128;2023-02-25T09:49:49;31.77;;;9.73;;
23449;SDS011;11897;45.438;12.128;2023-02-25T09:52:20;31.87;;;11.00;;
23449;SDS011;11897;45.438;12.128;2023-02-25T09:54:50;27.33;;;10.23;;
23449;SDS011;11897;45.438;12.128;2023-02-25T09:57:21;24.57;;;10.97;;
23449;SDS011;11897;45.438;12.128;2023-02-25T09:59:48;23.63;;;10.13;;
23449;SDS011;11897;45.438;12.128;2023-02-25T10:02:19;30.40;;;10.93;;
23449;SDS011;11897;45.438;12.128;2023-02-25T10:04:48;29.00;;;10.57;;
23449;SDS011;11897;45.438;12.128;2023-02-25T10:07:18;34.20;;;11.90;;
23449;SDS011;11897;45.438;12.128;2023-02-25T10:09:49;27.97;;;9.63;;
23449;SDS011;11897;45.438;12.128;2023-02-25T10:12:23;29.07;;;10.97;;
23449;SDS011;11897;45.438;12.128;2023-02-25T10:15:12;27.77;;;11.77;;
23449;SDS011;11897;45.438;12.128;2023-02-25T10:17:42;32.63;;;11.07;;
23449;SDS011;11897;45.438;12.128;2023-02-25T10:20:17;19.57;;;8.73;;
23449;SDS011;11897;45.438;12.128;2023-02-25T10:22:50;31.10;;;9.90;;
23449;SDS011;11897;45.438;12.128;2023-02-25T10:25:22;24.47;;;10.63;;
23449;SDS011;11897;45.438;12.128;2023-02-25T10:27:53;25.57;;;10.27;;
23449;SDS011;11897;45.438;12.128;2023-02-25T10:30:22;25.53;;;11.37;;
23449;SDS011;11897;45.438;12.128;2023-02-25T10:32:50;25.80;;;12.07;;
23449;SDS011;11897;45.438;12.128;2023-02-25T10:35:18;25.40;;;10.27;;
23449;SDS011;11897;45.438;12.128;2023-02-25T10:37:47;23.63;;;11.03;;
23449;SDS011;11897;45.438;12.128;2023-02-25T10:40:14;31.37;;;9.60;;
23449;SDS011;11897;45.438;12.128;2023-02-25T10:42:42;31.70;;;12.10;;
23449;SDS011;11897;45.438;12.128;2023-02-25T10:45:16;26.13;;;11.97;;
23449;SDS011;11897;45.438;12.128;2023-02-25T10:47:44;24.07;;;10.60;;
23449;SDS011;11897;45.438;12.128;2023-02-25T10:50:13;24.10;;;10.20;;
23449;SDS011;11897;45.438;12.128;2023-02-25T10:52:52;35.20;;;13.03;;
23449;SDS011;11897;45.438;12.128;2023-02-25T11:01:02;24.70;;;10.50;;
23449;SDS011;11897;45.438;12.128;2023-02-25T11:03:31;29.43;;;10.37;;
23449;SDS011;11897;45.438;12.128;2023-02-25T11:06:08;26.60;;;10.97;;
23449;SDS011;11897;45.438;12.128;2023-02-25T11:08:35;26.67;;;10.33;;
23449;SDS011;11897;45.438;12.128;2023-02-25T11:11:03;31.07;;;11.80;;
23449;SDS011;11897;45.438;12.128;2023-02-25T11:13:30;32.13;;;10.83;;
23449;SDS011;11897;45.438;12.128;2023-02-25T11:16:01;22.00;;;9.73;;
23449;SDS011;11897;45.438;12.128;2023-02-25T11:18:31;35.33;;;11.60;;
23449;SDS011;11897;45.438;12.128;2023-02-25T11:20:58;28.93;;;11.57;;
23449;SDS011;11897;45.438;12.128;2023-02-25T11:23:27;30.23;;;11.27;;
23449;SDS011;11897;45.438;12.128;2023-02-25T11:25:55;29.40;;;11.73;;
23449;SDS011;11897;45.438;12.128;2023-02-25T11:28:24;25.93;;;10.27;;
23449;SDS011;11897;45.438;12.128;2023-02-25T11:30:53;25.37;;;9.87;;
23449;SDS011;11897;45.438;12.128;2023-02-25T11:33:24;26.33;;;10.97;;
23449;SDS011;11897;45.438;12.128;2023-02-25T11:35:53;25.53;;;10.97;;
23449;SDS011;11897;45.438;12.128;2023-02-25T11:38:23;23.00;;;9.53;;
23449;SDS011;11897;45.438;12.128;2023-02-25T11:40:50;24.40;;;10.83;;
23449;SDS011;11897;45.438;12.128;2023-02-25T11:43:18;27.67;;;10.27;;
23449;SDS011;11897;45.438;12.128;2023-02-25T11:45:49;24.40;;;9.83;;
23449;SDS011;11897;45.438;12.128;2023-02-25T11:48:17;24.47;;;10.00;;
23449;SDS011;11897;45.438;12.128;2023-02-25T11:50:46;23.73;;;10.03;;
23449;SDS011;11897;45.438;12.128;2023-02-25T11:53:17;27.93;;;11.50;;
23449;SDS011;11897;45.438;12.128;2023-02-25T11:55:50;20.73;;;10.47;;
23449;SDS011;11897;45.438;12.128;2023-02-25T11:58:21;22.80;;;9.47;;
23449;SDS011;11897;45.438;12.128;2023-02-25T12:00:52;21.17;;;9.43;;
23449;SDS011;11897;45.438;12.128;2023-02-25T12:06:12;26.27;;;10.70;;
23449;SDS011;11897;45.438;12.128;2023-02-25T12:08:49;23.80;;;11.17;;
23449;SDS011;11897;45.438;12.128;2023-02-25T12:14:09;19.30;;;9.47;;
23449;SDS011;11897;45.438;12.128;2023-02-25T12:19:33;28.07;;;11.10;;
23449;SDS011;11897;45.438;12.128;2023-02-25T12:24:52;24.03;;;11.37;;
23449;SDS011;11897;45.438;12.128;2023-02-25T12:27:29;26.23;;;10.60;;
23449;SDS011;11897;45.438;12.128;2023-02-25T12:32:49;24.53;;;9.73;;
23449;SDS011;11897;45.438;12.128;2023-02-25T12:38:20;28.50;;;10.50;;
23449;SDS011;11897;45.438;12.128;2023-02-25T12:40:57;19.10;;;8.80;;
23449;SDS011;11897;45.438;12.128;2023-02-25T12:43:28;19.67;;;8.90;;
23449;SDS011;11897;45.438;12.128;2023-02-25T12:46:01;20.83;;;9.27;;
23449;SDS011;11897;45.438;12.128;2023-02-25T12:48:46;15.10;;;8.23;;
23449;SDS011;11897;45.438;12.128;2023-02-25T12:51:20;18.13;;;8.47;;
23449;SDS011;11897;45.438;12.128;2023-02-25T12:53:50;23.70;;;9.00;;
23449;SDS011;11897;45.438;12.128;2023-02-25T12:56:41;21.67;;;8.67;;
23449;SDS011;11897;45.438;12.128;2023-02-25T12:59:32;19.17;;;8.80;;
23449;SDS011;11897;45.438;12.128;2023-02-25T13:02:14;20.43;;;9.10;;
23449;SDS011;11897;45.438;12.128;2023-02-25T13:04:50;20.10;;;9.23;;
23449;SDS011;11897;45.438;12.128;2023-02-25T13:10:20;20.90;;;10.33;;
23449;SDS011;11897;45.438;12.128;2023-02-25T13:13:01;24.07;;;10.80;;
23449;SDS011;11897;45.438;12.128;2023-02-25T13:15:31;20.97;;;9.27;;
23449;SDS011;11897;45.438;12.128;2023-02-25T13:18:17;19.77;;;8.47;;
23449;SDS011;11897;45.438;12.128;2023-02-25T13:21:00;23.27;;;9.90;;
23449;SDS011;11897;45.438;12.128;2023-02-25T13:23:34;21.93;;;10.67;;
23449;SDS011;11897;45.438;12.128;2023-02-25T13:28:53;21.67;;;10.00;;
23449;SDS011;11897;45.438;12.128;2023-02-25T13:31:29;26.80;;;10.87;;
23449;SDS011;11897;45.438;12.128;2023-02-25T13:33:59;20.10;;;9.40;;
23449;SDS011;11897;45.438;12.128;2023-02-25T13:36:34;25.27;;;9.83;;
23449;SDS011;11897;45.438;12.128;2023-02-25T13:39:10;18.40;;;9.23;;
23449;SDS011;11897;45.438;12.128;2023-02-25T13:41:41;18.70;;;8.30;;
23449;SDS011;11897;45.438;12.128;2023-02-25T13:44:36;26.87;;;10.90;;
23449;SDS011;11897;45.438;12.128;2023-02-25T13:47:18;21.43;;;9.10;;
23449;SDS011;11897;45.438;12.128;2023-02-25T13:49:56;20.50;;;8.70;;
23449;SDS011;11897;45.438;12.128;2023-02-25T13:52:28;20.67;;;9.77;;
23449;SDS011;11897;45.438;12.128;2023-02-25T13:57:46;20.17;;;8.90;;
23449;SDS011;11897;45.438;12.128;2023-02-25T14:05:47;25.13;;;9.90;;
23449;SDS011;11897;45.438;12.128;2023-02-25T14:08:21;21.20;;;8.90;;
23449;SDS011;11897;45.438;12.128;2023-02-25T14:10:52;23.30;;;8.93;;
23449;SDS011;11897;45.438;12.128;2023-02-25T14:13:23;23.27;;;9.37;;
23449;SDS011;11897;45.438;12.128;2023-02-25T14:15:57;18.97;;;8.93;;
23449;SDS011;11897;45.438;12.128;2023-02-25T14:18:36;20.47;;;9.63;;
23449;SDS011;11897;45.438;12.128;2023-02-25T14:21:18;26.70;;;10.43;;
23449;SDS011;11897;45.438;12.128;2023-02-25T14:23:50;23.53;;;10.07;;
23449;SDS011;11897;45.438;12.128;2023-02-25T14:26:22;26.50;;;10.10;;
23449;SDS011;11897;45.438;12.128;2023-02-25T14:28:56;22.93;;;9.03;;
23449;SDS011;11897;45.438;12.128;2023-02-25T14:31:30;27.20;;;10.77;;
23449;SDS011;11897;45.438;12.128;2023-02-25T14:34:02;28.77;;;9.97;;
23449;SDS011;11897;45.438;12.128;2023-02-25T14:36:43;26.23;;;10.93;;
23449;SDS011;11897;45.438;12.128;2023-02-25T14:39:16;26.13;;;10.20;;
23449;SDS011;11897;45.438;12.128;2023-02-25T14:41:49;23.43;;;8.97;;
23449;SDS011;11897;45.438;12.128;2023-02-25T14:44:19;24.20;;;9.23;;
23449;SDS011;11897;45.438;12.128;2023-02-25T14:46:51;22.60;;;9.60;;
23449;SDS011;11897;45.438;12.128;2023-02-25T14:49:21;22.30;;;11.30;;
23449;SDS011;11897;45.438;12.128;2023-02-25T14:51:54;21.43;;;9.73;;
23449;SDS011;11897;45.438;12.128;2023-02-25T14:54:41;25.50;;;9.93;;
23449;SDS011;11897;45.438;12.128;2023-02-25T14:57:16;28.07;;;11.07;;
23449;SDS011;11897;45.438;12.128;2023-02-25T14:59:55;29.47;;;11.33;;
23449;SDS011;11897;45.438;12.128;2023-02-25T15:02:29;24.60;;;10.53;;
23449;SDS011;11897;45.438;12.128;2023-02-25T15:05:04;32.33;;;11.17;;
23449;SDS011;11897;45.438;12.128;2023-02-25T15:07:43;24.53;;;10.37;;
23449;SDS011;11897;45.438;12.128;2023-02-25T15:10:29;30.20;;;11.90;;